Time;durP1;ratioP1;P1;durP2;ratioP2;P2;SDS_P1;SDS_P2;PMS_P1;PMS_P2;Temp;Humidity;BMP_temperature;BMP_pressure;BME280_temperature;BME280_humidity;BME280_pressure;Samples;Min_cycle;Max_cycle;Signal;HPM_P1;HPM_P2
2022/07/11 00:00:52;;;;;;;2.05;0.70;;;26.10;96.70;;;;;;4865875;29;20103;-77
2022/07/11 00:03:21;;;;;;;2.20;0.80;;;26.10;96.70;;;;;;4864673;29;20382;-78
2022/07/11 00:05:49;;;;;;;3.13;0.77;;;25.90;96.70;;;;;;4867147;29;20629;-79
2022/07/11 00:08:16;;;;;;;2.35;0.70;;;25.90;96.70;;;;;;4866523;29;20060;-80
2022/07/11 00:10:46;;;;;;;1.38;0.60;;;25.80;96.70;;;;;;4868673;29;20139;-79
2022/07/11 00:13:14;;;;;;;1.42;0.70;;;25.80;96.70;;;;;;4865439;29;20056;-78
2022/07/11 00:15:42;;;;;;;2.72;0.50;;;25.80;96.70;;;;;;4850941;29;20053;-77
2022/07/11 00:18:09;;;;;;;1.30;0.70;;;25.70;96.70;;;;;;4865656;29;20468;-80
2022/07/11 00:20:39;;;;;;;1.00;0.65;;;25.70;96.70;;;;;;4865863;29;20052;-79
2022/07/11 00:23:06;;;;;;;2.40;0.50;;;25.70;96.70;;;;;;4868077;29;20051;-78
2022/07/11 00:25:34;;;;;;;1.17;0.73;;;25.60;96.70;;;;;;4865178;29;20380;-79
2022/07/11 00:28:02;;;;;;;2.03;0.60;;;25.60;96.70;;;;;;4879569;29;20045;-79
2022/07/11 00:30:30;;;;;;;1.55;0.60;;;25.60;96.70;;;;;;4866071;29;20049;-78
2022/07/11 00:32:58;;;;;;;2.38;0.80;;;25.50;96.70;;;;;;4865717;29;20057;-79
2022/07/11 00:35:26;;;;;;;1.23;0.60;;;25.50;96.70;;;;;;4850423;29;20067;-79
2022/07/11 00:37:55;;;;;;;1.08;0.77;;;25.50;96.70;;;;;;4864735;29;20053;-79
2022/07/11 00:40:23;;;;;;;2.45;0.80;;;25.50;96.70;;;;;;4849980;29;20041;-78
2022/07/11 00:42:51;;;;;;;1.85;0.52;;;25.40;96.70;;;;;;4882425;29;20052;-80
2022/07/11 00:45:18;;;;;;;1.25;0.65;;;25.30;96.70;;;;;;4839034;29;20244;-84
2022/07/11 00:47:46;;;;;;;2.20;0.73;;;25.20;96.70;;;;;;4886516;29;20136;-84
2022/07/11 00:50:14;;;;;;;2.33;0.70;;;25.20;96.70;;;;;;4872057;29;20140;-83
2022/07/11 00:52:42;;;;;;;2.67;0.73;;;25.10;96.70;;;;;;4871272;29;20535;-84
2022/07/11 00:55:12;;;;;;;2.42;0.73;;;25.10;96.70;;;;;;4873026;29;20049;-83
2022/07/11 00:57:40;;;;;;;2.10;0.82;;;25.10;96.70;;;;;;4870633;29;20049;-84
2022/07/11 01:00:09;;;;;;;1.35;0.80;;;25.00;96.70;;;;;;4871432;29;20056;-83
2022/07/11 01:02:37;;;;;;;1.05;0.60;;;25.10;96.70;;;;;;4871205;29;20048;-83
2022/07/11 01:05:06;;;;;;;1.77;0.60;;;25.10;96.70;;;;;;4863590;29;20056;-84
2022/07/11 01:07:34;;;;;;;1.08;0.65;;;25.10;96.70;;;;;;4869822;29;20057;-84
2022/07/11 01:10:01;;;;;;;1.55;0.63;;;25.30;96.70;;;;;;4873312;29;20056;-84
2022/07/11 01:12:31;;;;;;;1.33;0.55;;;25.20;96.70;;;;;;4870283;29;20655;-84
2022/07/11 01:15:02;;;;;;;1.23;0.70;;;25.20;96.70;;;;;;4887100;29;20402;-84
2022/07/11 01:17:30;;;;;;;1.70;0.80;;;25.00;96.70;;;;;;4871117;29;20053;-83
2022/07/11 01:19:57;;;;;;;2.15;0.60;;;25.00;96.70;;;;;;4873362;29;20060;-85
2022/07/11 01:22:27;;;;;;;2.08;0.80;;;25.00;96.70;;;;;;4871002;29;20142;-84
2022/07/11 01:24:57;;;;;;;1.23;0.50;;;24.90;96.70;;;;;;4875554;29;20116;-84
2022/07/11 01:27:25;;;;;;;1.10;0.60;;;25.00;96.70;;;;;;4877401;29;20041;-84
2022/07/11 01:29:53;;;;;;;0.82;0.65;;;25.00;96.70;;;;;;4870443;29;20048;-84
2022/07/11 01:32:22;;;;;;;1.73;0.70;;;24.90;96.70;;;;;;4873782;29;20044;-84
2022/07/11 01:34:49;;;;;;;2.47;0.65;;;24.70;96.70;;;;;;4870573;29;20120;-85
2022/07/11 01:37:19;;;;;;;1.80;0.55;;;24.60;96.70;;;;;;4866773;29;20480;-85
2022/07/11 01:39:47;;;;;;;2.28;0.73;;;24.50;96.70;;;;;;4870875;29;20069;-85
2022/07/11 01:42:17;;;;;;;0.60;0.52;;;24.60;96.70;;;;;;4870704;29;20061;-84
2022/07/11 01:44:56;;;;;;;1.35;0.50;;;24.50;96.70;;;;;;4858152;29;20063;-85
2022/07/11 01:47:24;;;;;;;1.65;0.68;;;24.50;96.70;;;;;;4869510;29;20129;-79
2022/07/11 01:49:52;;;;;;;2.45;0.90;;;24.50;96.70;;;;;;4865364;29;20044;-78
2022/07/11 01:52:20;;;;;;;3.90;0.75;;;24.50;96.70;;;;;;4863395;29;20045;-79
2022/07/11 01:54:49;;;;;;;1.08;0.70;;;24.40;96.70;;;;;;4864889;29;20045;-79
2022/07/11 01:57:18;;;;;;;1.95;0.80;;;24.40;96.70;;;;;;4864128;29;20056;-79
2022/07/11 01:59:46;;;;;;;1.98;0.80;;;24.50;96.70;;;;;;4866394;29;20041;-79
2022/07/11 02:02:15;;;;;;;1.85;0.80;;;24.40;96.70;;;;;;4865161;29;20132;-79
2022/07/11 02:04:43;;;;;;;2.92;0.80;;;24.40;96.70;;;;;;4869370;29;20072;-78
2022/07/11 02:07:11;;;;;;;1.60;0.63;;;24.50;96.70;;;;;;4866947;29;20048;-79
2022/07/11 02:09:39;;;;;;;0.93;0.50;;;24.50;96.70;;;;;;4863956;29;20091;-78
2022/07/11 02:12:08;;;;;;;4.32;0.70;;;24.50;96.70;;;;;;4864334;29;20713;-79
2022/07/11 02:14:37;;;;;;;4.35;0.80;;;24.40;96.70;;;;;;4879595;29;20639;-78
2022/07/11 02:17:06;;;;;;;3.50;0.95;;;24.30;96.70;;;;;;4864472;29;20051;-79
2022/07/11 02:19:34;;;;;;;2.47;0.70;;;24.30;96.70;;;;;;4864245;29;20045;-79
2022/07/11 02:22:05;;;;;;;1.90;0.80;;;24.30;96.70;;;;;;4864716;29;20049;-79
2022/07/11 02:24:34;;;;;;;1.58;0.55;;;24.30;96.70;;;;;;4871162;29;20953;-78
2022/07/11 02:27:02;;;;;;;1.75;0.65;;;24.30;96.70;;;;;;4864718;29;20048;-80
2022/07/11 02:29:30;;;;;;;2.08;0.80;;;24.20;96.70;;;;;;4863210;29;20068;-78
2022/07/11 02:32:00;;;;;;;1.67;0.57;;;24.20;96.70;;;;;;4864869;29;20468;-79
2022/07/11 02:34:28;;;;;;;1.77;0.75;;;24.30;96.70;;;;;;4864855;29;20045;-79
2022/07/11 02:36:56;;;;;;;1.67;0.68;;;24.20;96.70;;;;;;4860123;29;20118;-78
2022/07/11 02:39:24;;;;;;;1.70;0.80;;;24.20;96.70;;;;;;4862555;29;20064;-79
2022/07/11 02:41:52;;;;;;;1.83;0.70;;;24.20;96.70;;;;;;4865676;29;20056;-78
2022/07/11 02:44:20;;;;;;;3.40;0.80;;;24.30;96.70;;;;;;4848519;29;20150;-78
2022/07/11 02:46:48;;;;;;;1.02;0.80;;;24.30;96.70;;;;;;4863109;29;20060;-80
2022/07/11 02:49:18;;;;;;;1.88;0.80;;;24.30;96.70;;;;;;4880939;29;20036;-80
2022/07/11 02:51:49;;;;;;;2.35;0.70;;;24.30;96.70;;;;;;4849608;29;20865;-85
2022/07/11 02:54:18;;;;;;;1.63;0.70;;;24.20;96.70;;;;;;4864728;29;20049;-78
2022/07/11 02:56:46;;;;;;;1.98;0.88;;;24.10;96.70;;;;;;4848262;29;20084;-80
2022/07/11 02:59:14;;;;;;;3.08;0.80;;;24.10;96.70;;;;;;4864087;29;20049;-80
2022/07/11 03:01:42;;;;;;;0.95;0.73;;;24.10;96.70;;;;;;4864963;29;20049;-81
2022/07/11 03:04:11;;;;;;;3.17;0.85;;;24.10;96.70;;;;;;4862488;29;20543;-80
2022/07/11 03:06:40;;;;;;;4.18;1.00;;;24.00;96.70;;;;;;4866923;29;20621;-81
2022/07/11 03:09:09;;;;;;;2.45;0.95;;;23.90;96.70;;;;;;4868501;29;20599;-79
2022/07/11 03:11:37;;;;;;;2.38;1.00;;;23.90;96.70;;;;;;4851682;29;20085;-81
2022/07/11 03:14:05;;;;;;;1.55;0.60;;;23.90;96.70;;;;;;4869300;29;20705;-80
2022/07/11 03:16:34;;;;;;;1.90;0.77;;;23.90;96.70;;;;;;4866720;29;20059;-80
2022/07/11 03:19:02;;;;;;;2.92;0.98;;;23.90;96.70;;;;;;4867281;29;20072;-80
2022/07/11 03:21:30;;;;;;;1.63;0.80;;;24.00;96.70;;;;;;4867213;29;20097;-80
2022/07/11 03:23:59;;;;;;;2.28;0.90;;;24.00;96.70;;;;;;4852011;29;20076;-79
2022/07/11 03:26:27;;;;;;;4.68;1.00;;;24.00;96.70;;;;;;4867372;29;20073;-78
2022/07/11 03:28:55;;;;;;;2.53;1.23;;;24.00;96.70;;;;;;4869732;29;20226;-79
2022/07/11 03:31:24;;;;;;;1.48;0.93;;;23.90;96.70;;;;;;4866997;29;20041;-79
2022/07/11 03:33:52;;;;;;;3.78;1.00;;;23.90;96.70;;;;;;4878290;29;20051;-80
2022/07/11 03:36:20;;;;;;;2.70;1.13;;;23.90;96.70;;;;;;4867194;29;20629;-78
2022/07/11 03:38:48;;;;;;;3.70;0.85;;;23.90;96.70;;;;;;4865477;29;20050;-77
2022/07/11 03:41:17;;;;;;;2.72;1.10;;;23.70;96.70;;;;;;4882216;29;20053;-79
2022/07/11 03:43:45;;;;;;;2.17;0.80;;;23.60;96.70;;;;;;4881537;29;20049;-80
2022/07/11 03:46:13;;;;;;;2.83;0.73;;;23.60;96.70;;;;;;4881894;29;20053;-78
2022/07/11 03:48:42;;;;;;;3.40;0.70;;;23.70;96.70;;;;;;4883666;29;20140;-79
2022/07/11 03:51:09;;;;;;;2.50;0.80;;;23.70;96.70;;;;;;4865198;29;20527;-79
2022/07/11 03:53:38;;;;;;;4.25;0.80;;;23.70;96.70;;;;;;4876596;29;20049;-77
2022/07/11 03:56:06;;;;;;;5.72;2.30;;;23.70;96.70;;;;;;4859989;29;20535;-78
2022/07/11 03:58:36;;;;;;;9.38;5.32;;;23.50;96.70;;;;;;4866045;29;20053;-78
2022/07/11 04:01:04;;;;;;;17.63;8.10;;;23.40;96.70;;;;;;4864097;29;20508;-79
2022/07/11 04:03:32;;;;;;;25.38;13.57;;;23.40;96.70;;;;;;4864347;29;20096;-78
2022/07/11 04:06:00;;;;;;;26.08;15.13;;;23.30;96.70;;;;;;4849769;29;20500;-77
2022/07/11 04:08:28;;;;;;;22.45;13.68;;;23.20;96.70;;;;;;4876468;29;20053;-78
2022/07/11 04:10:56;;;;;;;26.88;12.32;;;23.10;96.70;;;;;;4849801;29;20100;-79
2022/07/11 04:13:24;;;;;;;18.08;9.20;;;23.10;96.70;;;;;;4867134;29;20072;-78
2022/07/11 04:15:53;;;;;;;14.10;7.57;;;23.20;96.70;;;;;;4870997;29;20053;-79
2022/07/11 04:18:21;;;;;;;13.27;7.25;;;23.10;96.70;;;;;;4871385;29;20494;-79
2022/07/11 04:20:49;;;;;;;9.52;4.80;;;23.00;96.70;;;;;;4871779;29;20135;-78
2022/07/11 04:23:18;;;;;;;8.90;4.60;;;23.10;96.70;;;;;;4870643;29;20514;-78
2022/07/11 04:25:46;;;;;;;9.90;4.55;;;23.00;96.70;;;;;;4870209;29;20056;-79
2022/07/11 04:28:14;;;;;;;8.27;4.22;;;22.90;96.70;;;;;;4873390;29;20499;-82
2022/07/11 04:30:42;;;;;;;8.20;4.35;;;22.90;96.70;;;;;;4860046;29;20092;-83
2022/07/11 04:33:12;;;;;;;9.70;4.38;;;22.90;96.70;;;;;;4871353;29;20122;-83
2022/07/11 04:35:39;;;;;;;11.88;4.78;;;22.90;96.70;;;;;;4874686;29;20108;-83
2022/07/11 04:38:08;;;;;;;7.22;4.30;;;22.80;96.70;;;;;;4875174;29;20053;-82
2022/07/11 04:40:35;;;;;;;8.90;5.45;;;22.80;96.70;;;;;;4874962;29;20619;-83
2022/07/11 04:43:04;;;;;;;10.82;6.97;;;22.90;96.70;;;;;;4859994;29;20157;-83
2022/07/11 04:45:32;;;;;;;10.80;6.43;;;23.00;96.70;;;;;;4876114;29;20135;-83
2022/07/11 04:48:01;;;;;;;10.00;5.88;;;23.10;96.70;;;;;;4875722;29;20065;-84
2022/07/11 04:50:31;;;;;;;9.55;4.60;;;23.10;96.70;;;;;;4875515;29;20156;-84
2022/07/11 04:52:58;;;;;;;7.53;3.63;;;23.10;96.70;;;;;;4875271;29;20139;-85
2022/07/11 04:55:26;;;;;;;5.78;3.20;;;23.10;96.70;;;;;;4871669;29;20496;-84
2022/07/11 04:57:54;;;;;;;4.93;2.65;;;23.10;96.70;;;;;;4871386;29;20053;-84
2022/07/11 05:00:22;;;;;;;3.25;1.95;;;23.10;96.70;;;;;;4874238;29;20041;-84
2022/07/11 05:02:50;;;;;;;4.90;2.10;;;23.20;96.70;;;;;;4890269;29;20066;-84
2022/07/11 05:05:19;;;;;;;3.72;1.75;;;23.30;96.70;;;;;;4874418;29;20053;-84
2022/07/11 05:07:49;;;;;;;5.38;1.70;;;23.30;96.70;;;;;;4876466;29;20105;-84
2022/07/11 05:10:17;;;;;;;3.88;1.58;;;23.30;96.70;;;;;;4870590;29;20104;-84
2022/07/11 05:12:45;;;;;;;2.50;1.50;;;23.40;96.70;;;;;;4871767;29;20053;-84
2022/07/11 05:15:13;;;;;;;3.40;1.70;;;23.40;96.70;;;;;;4891195;29;20340;-84
2022/07/11 05:17:41;;;;;;;4.35;1.88;;;23.40;96.70;;;;;;4880932;29;20076;-83
2022/07/11 05:20:13;;;;;;;4.47;1.65;;;23.40;96.70;;;;;;4876164;29;20049;-84
2022/07/11 05:22:42;;;;;;;2.80;1.40;;;23.30;96.70;;;;;;4875501;29;20064;-85
2022/07/11 05:25:13;;;;;;;2.00;0.90;;;23.30;96.70;;;;;;4890010;29;20064;-83
2022/07/11 05:27:42;;;;;;;2.70;1.00;;;23.30;96.70;;;;;;4858990;29;20049;-84
2022/07/11 05:30:10;;;;;;;2.08;0.90;;;23.30;96.70;;;;;;4889365;29;20045;-85
2022/07/11 05:32:38;;;;;;;2.85;1.10;;;23.30;96.70;;;;;;4856705;29;20052;-83
2022/07/11 05:35:07;;;;;;;4.03;1.35;;;23.30;96.70;;;;;;4874491;29;20101;-81
2022/07/11 05:37:35;;;;;;;2.45;1.23;;;23.40;96.70;;;;;;4874205;29;20056;-82
2022/07/11 05:40:04;;;;;;;5.40;1.35;;;23.40;96.70;;;;;;4874215;29;20074;-82
2022/07/11 05:42:34;;;;;;;1.98;0.90;;;23.50;96.70;;;;;;4872649;29;20057;-83
2022/07/11 05:45:05;;;;;;;3.25;1.08;;;23.60;96.70;;;;;;4874494;29;20045;-82
2022/07/11 05:47:33;;;;;;;2.67;1.08;;;23.60;96.70;;;;;;4861670;29;20055;-83
2022/07/11 05:50:01;;;;;;;2.42;1.20;;;23.70;96.70;;;;;;4872580;29;20048;-83
2022/07/11 05:52:29;;;;;;;3.17;0.93;;;23.80;96.70;;;;;;4873651;29;20056;-83
2022/07/11 05:54:57;;;;;;;2.85;1.45;;;23.90;96.70;;;;;;4873597;29;20127;-83
2022/07/11 05:57:25;;;;;;;2.70;1.00;;;23.90;96.70;;;;;;4874787;29;20044;-83
2022/07/11 05:59:54;;;;;;;2.95;0.90;;;23.90;96.70;;;;;;4874289;29;20052;-82
2022/07/11 06:02:22;;;;;;;3.92;1.25;;;24.00;96.70;;;;;;4889007;29;20053;-89
2022/07/11 06:04:51;;;;;;;1.58;0.80;;;24.10;96.70;;;;;;4874559;29;20092;-84
2022/07/11 06:10:05;;;;;;;2.47;1.10;;;24.20;96.70;;;;;;4875084;29;20081;-84
2022/07/11 06:12:33;;;;;;;3.88;1.23;;;24.30;96.70;;;;;;4858986;29;21154;-84
2022/07/11 06:15:04;;;;;;;1.83;0.90;;;24.40;96.70;;;;;;4875512;29;20045;-84
2022/07/11 06:17:32;;;;;;;3.13;0.90;;;24.50;96.70;;;;;;4883326;29;20057;-84
2022/07/11 06:20:00;;;;;;;4.95;0.90;;;24.60;96.70;;;;;;4856627;29;20049;-83
2022/07/11 06:22:28;;;;;;;4.15;1.20;;;24.60;96.70;;;;;;4873782;29;20572;-84
2022/07/11 06:24:57;;;;;;;3.85;1.20;;;24.60;96.70;;;;;;4875445;29;20388;-83
2022/07/11 06:27:27;;;;;;;2.25;1.02;;;24.60;96.70;;;;;;4873865;29;20057;-83
2022/07/11 06:29:55;;;;;;;2.03;0.95;;;24.80;96.70;;;;;;4874518;29;20068;-83
2022/07/11 06:32:25;;;;;;;3.33;0.90;;;24.80;96.70;;;;;;4888813;29;20389;-84
2022/07/11 06:34:52;;;;;;;2.10;1.02;;;24.90;96.70;;;;;;4873094;29;20049;-84
2022/07/11 06:37:20;;;;;;;2.47;0.95;;;25.00;96.70;;;;;;4888676;29;20060;-84
2022/07/11 06:39:49;;;;;;;3.20;0.90;;;25.00;96.70;;;;;;4873214;29;20045;-83
2022/07/11 06:42:17;;;;;;;1.17;0.80;;;25.00;96.70;;;;;;4874865;29;20057;-84
2022/07/11 06:44:54;;;;;;;3.15;1.02;;;25.20;96.70;;;;;;4874934;29;20056;-83
2022/07/11 06:47:25;;;;;;;3.13;1.30;;;25.20;96.70;;;;;;4873852;29;20053;-84
2022/07/11 06:49:52;;;;;;;2.88;1.00;;;25.30;96.70;;;;;;4873515;29;20081;-84
2022/07/11 06:52:20;;;;;;;1.73;1.17;;;25.30;96.70;;;;;;4889172;29;20048;-83
2022/07/11 06:54:48;;;;;;;3.60;1.10;;;25.30;96.70;;;;;;4874559;29;20045;-84
2022/07/11 06:57:16;;;;;;;2.88;0.90;;;25.20;96.70;;;;;;4873844;29;20049;-84
2022/07/11 06:59:44;;;;;;;4.07;1.45;;;25.30;96.70;;;;;;4886274;29;20065;-82
2022/07/11 07:02:11;;;;;;;4.60;0.80;;;25.30;96.70;;;;;;4874433;29;20083;-84
2022/07/11 07:04:41;;;;;;;2.88;0.93;;;25.30;96.70;;;;;;4883386;29;20049;-83
2022/07/11 07:07:09;;;;;;;2.80;0.60;;;25.40;96.70;;;;;;4874274;29;20045;-84
2022/07/11 07:09:37;;;;;;;3.67;1.20;;;25.40;96.70;;;;;;4873355;29;20048;-83
2022/07/11 07:12:05;;;;;;;3.30;0.93;;;25.40;96.70;;;;;;4874669;29;20068;-84
2022/07/11 07:14:33;;;;;;;2.97;1.10;;;25.50;96.70;;;;;;4872425;29;20060;-83
2022/07/11 07:17:01;;;;;;;2.75;0.93;;;25.50;96.70;;;;;;4872209;29;20082;-87
2022/07/11 07:19:43;;;;;;;5.75;1.73;;;25.60;96.70;;;;;;4873909;29;20072;-83
2022/07/11 07:22:15;;;;;;;4.85;1.13;;;25.70;96.70;;;;;;4865740;29;20057;-83
2022/07/11 07:24:43;;;;;;;2.75;1.50;;;25.80;96.70;;;;;;4873632;29;20080;-82
2022/07/11 07:27:12;;;;;;;4.93;1.48;;;25.80;96.70;;;;;;4855616;29;20045;-84
2022/07/11 07:29:40;;;;;;;3.80;1.30;;;25.90;96.70;;;;;;4870183;29;20076;-83
2022/07/11 07:32:09;;;;;;;3.95;1.40;;;26.00;96.70;;;;;;4871549;29;20568;-83
2022/07/11 07:34:37;;;;;;;5.03;1.40;;;26.00;96.70;;;;;;4870220;29;20071;-85
2022/07/11 07:37:07;;;;;;;1.73;1.13;;;26.10;96.70;;;;;;4857954;29;20053;-84
2022/07/11 07:39:35;;;;;;;4.22;1.20;;;26.20;96.70;;;;;;4873959;29;20056;-81
2022/07/11 07:42:04;;;;;;;2.53;1.30;;;26.20;96.70;;;;;;4870989;29;20469;-82
2022/07/11 07:44:32;;;;;;;1.88;1.02;;;26.30;96.70;;;;;;4873335;29;20057;-83
2022/07/11 07:47:01;;;;;;;4.15;1.13;;;26.40;96.70;;;;;;4873985;29;20045;-83
2022/07/11 07:49:30;;;;;;;3.42;1.40;;;26.40;96.70;;;;;;4887419;29;20430;-84
2022/07/11 07:51:58;;;;;;;1.42;0.85;;;26.50;96.70;;;;;;4873449;29;20049;-89
2022/07/11 07:54:28;;;;;;;5.85;1.45;;;26.60;96.70;;;;;;4877836;29;20338;-85
2022/07/11 07:56:56;;;;;;;2.65;0.98;;;26.60;96.70;;;;;;4877510;29;20516;-84
2022/07/11 07:59:25;;;;;;;5.38;1.38;;;26.70;96.70;;;;;;4878894;29;20136;-83
2022/07/11 08:01:53;;;;;;;3.35;1.30;;;26.60;96.70;;;;;;4877378;29;20049;-86
2022/07/11 08:04:21;;;;;;;2.83;1.25;;;26.60;96.70;;;;;;4891723;29;20056;-87
2022/07/11 08:06:50;;;;;;;4.38;1.60;;;26.70;96.70;;;;;;4876275;29;20132;-84
2022/07/11 08:09:18;;;;;;;4.05;1.20;;;26.70;96.70;;;;;;4862184;29;20049;-88
2022/07/11 08:11:50;;;;;;;3.03;1.42;;;26.70;96.70;;;;;;4875809;29;20045;-87
2022/07/11 08:14:19;;;;;;;2.08;1.23;;;26.80;96.70;;;;;;4876338;29;20049;-87
2022/07/11 08:16:47;;;;;;;2.63;1.27;;;26.80;96.70;;;;;;4872165;29;20053;-86
2022/07/11 08:19:16;;;;;;;3.80;1.10;;;26.80;96.70;;;;;;4876771;29;20049;-83
2022/07/11 08:21:44;;;;;;;1.88;1.20;;;26.90;96.70;;;;;;4891791;29;20060;-84
2022/07/11 08:24:13;;;;;;;4.25;1.00;;;26.90;96.70;;;;;;4891105;29;20049;-83
2022/07/11 08:26:41;;;;;;;1.30;0.90;;;27.00;96.70;;;;;;4877497;29;20097;-84
2022/07/11 08:29:11;;;;;;;2.33;1.10;;;27.00;96.70;;;;;;4875146;29;20041;-84
2022/07/11 08:31:39;;;;;;;1.50;1.25;;;27.10;96.70;;;;;;4877189;29;20049;-83
2022/07/11 08:34:07;;;;;;;2.83;0.90;;;27.20;96.70;;;;;;4876301;29;20041;-85
2022/07/11 08:36:42;;;;;;;3.42;0.93;;;27.20;96.70;;;;;;4870988;29;21894;-82
2022/07/11 08:39:11;;;;;;;2.63;1.10;;;27.40;96.70;;;;;;4859157;29;20045;-83
2022/07/11 08:41:44;;;;;;;2.00;0.90;;;27.50;96.70;;;;;;4876308;29;20045;-83
2022/07/11 08:44:15;;;;;;;3.05;1.30;;;27.60;96.70;;;;;;4890788;29;20108;-82
2022/07/11 08:46:45;;;;;;;2.03;1.17;;;27.70;96.70;;;;;;4880250;29;20117;-83
2022/07/11 08:49:14;;;;;;;2.67;1.20;;;27.70;96.70;;;;;;4882544;29;20047;-84
2022/07/11 08:51:43;;;;;;;1.92;1.17;;;27.70;96.70;;;;;;4875068;29;20041;-83
2022/07/11 08:54:12;;;;;;;4.03;1.45;;;27.90;96.70;;;;;;4875258;29;20561;-83
2022/07/11 08:56:43;;;;;;;5.57;1.08;;;28.00;96.70;;;;;;4876772;29;20601;-83
2022/07/11 08:59:17;;;;;;;2.60;1.40;;;27.90;96.70;;;;;;4890411;29;20151;-84
2022/07/11 09:01:46;;;;;;;2.58;1.25;;;28.00;96.70;;;;;;4874832;29;20136;-83
2022/07/11 09:04:16;;;;;;;3.28;1.40;;;28.00;96.70;;;;;;4874603;29;20053;-83
2022/07/11 09:06:45;;;;;;;3.58;1.55;;;28.00;96.70;;;;;;4868614;29;20666;-84
2022/07/11 09:09:13;;;;;;;2.78;1.25;;;28.00;96.70;;;;;;4874852;29;20078;-85
2022/07/11 09:11:52;;;;;;;3.92;1.50;;;28.10;96.70;;;;;;4876916;29;20101;-83
2022/07/11 09:14:23;;;;;;;3.20;1.08;;;28.20;96.70;;;;;;4875994;29;20105;-84
2022/07/11 09:16:58;;;;;;;3.38;1.17;;;28.40;96.70;;;;;;4866839;29;20131;-85
2022/07/11 09:19:27;;;;;;;2.92;1.23;;;28.40;96.70;;;;;;4875659;29;20049;-85
2022/07/11 09:27:45;;;;;;;5.05;1.48;;;28.60;96.70;;;;;;4876271;29;20056;-85
2022/07/11 09:30:25;;;;;;;2.65;1.25;;;28.70;96.70;;;;;;4860031;29;20045;-86
2022/07/11 09:32:55;;;;;;;1.88;1.17;;;28.70;96.70;;;;;;4883781;29;20408;-85
2022/07/11 09:35:25;;;;;;;4.32;1.50;;;28.90;96.70;;;;;;4854378;29;20942;-85
2022/07/11 09:37:53;;;;;;;3.60;1.13;;;28.90;96.70;;;;;;4874192;29;20057;-85
2022/07/11 09:40:23;;;;;;;3.47;1.33;;;28.90;96.70;;;;;;4875487;29;20568;-86
2022/07/11 09:42:53;;;;;;;3.15;1.40;;;28.90;96.70;;;;;;4874704;29;20056;-85
2022/07/11 09:45:30;;;;;;;5.68;1.30;;;28.80;96.70;;;;;;4874209;29;20507;-85
2022/07/11 09:48:00;;;;;;;2.22;1.10;;;29.10;96.70;;;;;;4874830;29;20052;-85
2022/07/11 09:50:30;;;;;;;4.13;1.00;;;29.20;96.70;;;;;;4889321;29;20053;-84
2022/07/11 09:53:01;;;;;;;3.78;1.00;;;29.20;96.70;;;;;;4873959;29;20504;-85
2022/07/11 09:55:30;;;;;;;3.50;1.60;;;29.30;96.70;;;;;;4874061;29;20060;-84
2022/07/11 09:58:21;;;;;;;4.07;1.92;;;29.40;96.70;;;;;;4888153;29;20063;-84
2022/07/11 10:00:53;;;;;;;2.65;1.60;;;29.50;96.70;;;;;;4874683;29;20314;-84
2022/07/11 10:03:23;;;;;;;4.47;1.75;;;29.60;96.70;;;;;;4885401;29;20056;-86
2022/07/11 10:06:11;;;;;;;3.83;1.55;;;29.60;96.70;;;;;;4880895;29;20045;-87
2022/07/11 10:08:40;;;;;;;3.35;1.48;;;29.60;96.70;;;;;;4875218;29;20053;-87
2022/07/11 10:11:10;;;;;;;2.10;1.45;;;29.70;96.70;;;;;;4889873;29;20076;-87
2022/07/11 10:13:39;;;;;;;3.08;1.52;;;29.80;96.70;;;;;;4874056;29;20048;-86
2022/07/11 10:16:31;;;;;;;3.20;1.58;;;29.80;96.70;;;;;;4873540;29;20508;-86
2022/07/11 10:19:11;;;;;;;4.15;1.60;;;29.80;96.70;;;;;;4876241;29;20056;-87
2022/07/11 10:21:46;;;;;;;3.30;1.50;;;29.90;96.70;;;;;;4874623;29;20080;-85
2022/07/11 10:24:35;;;;;;;3.53;1.60;;;30.00;96.70;;;;;;4874606;29;20058;-84
2022/07/11 10:27:10;;;;;;;2.65;1.20;;;30.20;96.70;;;;;;4874287;29;20033;-85
2022/07/11 10:29:45;;;;;;;3.17;1.30;;;30.30;96.70;;;;;;4872431;29;20156;-85
2022/07/11 10:32:19;;;;;;;3.17;1.30;;;30.50;96.70;;;;;;4873886;29;20123;-85
2022/07/11 10:35:07;;;;;;;1.90;1.27;;;30.60;96.70;;;;;;4858503;29;20049;-84
2022/07/11 10:37:49;;;;;;;4.20;1.40;;;30.60;96.70;;;;;;4880716;29;20160;-85
2022/07/11 10:40:43;;;;;;;3.55;1.58;;;30.70;96.70;;;;;;4869808;29;20359;-85
2022/07/11 10:43:12;;;;;;;4.50;1.17;;;31.00;96.70;;;;;;4881109;29;20053;-85
2022/07/11 10:45:59;;;;;;;7.10;1.25;;;31.10;96.70;;;;;;4867288;29;20657;-86
2022/07/11 10:48:31;;;;;;;3.58;1.10;;;31.20;96.70;;;;;;4874936;29;20080;-85
2022/07/11 10:51:21;;;;;;;2.05;1.10;;;31.30;96.70;;;;;;4881689;29;20424;-85
2022/07/11 10:53:51;;;;;;;3.88;1.25;;;31.30;96.70;;;;;;4861322;29;20110;-86
2022/07/11 10:56:45;;;;;;;4.80;1.10;;;31.60;96.70;;;;;;4874058;29;20041;-86
2022/07/11 10:59:23;;;;;;;3.80;1.10;;;31.60;96.70;;;;;;4882791;29;20107;-87
2022/07/11 11:02:12;;;;;;;2.00;1.00;;;31.40;96.50;;;;;;4866866;29;20568;-86
2022/07/11 11:04:45;;;;;;;1.80;0.98;;;31.20;96.70;;;;;;4877319;29;20045;-86
2022/07/11 11:07:34;;;;;;;1.58;1.10;;;31.00;96.70;;;;;;4871879;29;20154;-82
2022/07/11 11:10:06;;;;;;;1.30;0.90;;;31.20;96.70;;;;;;4868447;29;20049;-83
2022/07/11 11:13:14;;;;;;;1.55;0.90;;;31.50;96.70;;;;;;4853562;29;20080;-82
2022/07/11 11:15:43;;;;;;;;;;;31.90;96.70;;;;;;4862232;29;20085;-83
2022/07/11 11:18:34;;;;;;;1.13;1.00;;;32.00;94.60;;;;;;4853960;29;19927;-82
2022/07/11 11:21:23;;;;;;;1.33;1.10;;;32.00;93.40;;;;;;4841132;29;20601;-83
2022/07/11 11:24:08;;;;;;;3.03;1.37;;;32.10;96.70;;;;;;4868308;29;20060;-83
2022/07/11 11:26:45;;;;;;;1.52;1.10;;;32.20;96.70;;;;;;4839072;29;20053;-83
2022/07/11 11:29:29;;;;;;;4.97;1.00;;;32.20;95.70;;;;;;4869706;29;20124;-84
2022/07/11 11:31:59;;;;;;;2.30;1.40;;;32.30;96.70;;;;;;4857391;29;20053;-81
2022/07/11 11:34:28;;;;;;;1.60;1.20;;;32.50;96.20;;;;;;4873547;29;20084;-81
2022/07/11 11:37:01;;;;;;;3.42;1.30;;;32.50;96.70;;;;;;4856795;29;20171;-83
2022/07/11 11:39:32;;;;;;;3.33;1.52;;;32.60;96.70;;;;;;4858293;29;20053;-81
2022/07/11 11:42:13;;;;;;;1.30;1.13;;;32.50;96.70;;;;;;4855603;29;20085;-81
2022/07/11 11:44:50;;;;;;;3.38;1.25;;;32.50;96.70;;;;;;4864067;29;20192;-81
2022/07/11 11:47:19;;;;;;;3.78;1.38;;;32.60;96.70;;;;;;4860880;29;20143;-81
2022/07/11 11:49:49;;;;;;;1.88;1.17;;;32.60;96.70;;;;;;4855655;29;20551;-80
2022/07/11 11:52:20;;;;;;;3.85;1.60;;;32.60;96.70;;;;;;4857023;29;20082;-80
2022/07/11 11:54:58;;;;;;;3.20;1.25;;;32.60;96.70;;;;;;4874934;29;20072;-80
2022/07/11 11:57:28;;;;;;;1.42;1.20;;;32.70;96.70;;;;;;4874393;29;20100;-81
2022/07/11 11:59:57;;;;;;;1.85;1.15;;;32.70;96.70;;;;;;4875814;29;20045;-81
2022/07/11 12:02:28;;;;;;;3.20;1.10;;;32.90;96.10;;;;;;4874356;29;20044;-80
2022/07/11 12:04:58;;;;;;;2.15;1.20;;;33.00;94.60;;;;;;4890072;29;20084;-81
2022/07/11 12:07:29;;;;;;;6.72;1.13;;;32.90;95.10;;;;;;4867668;29;20061;-82
2022/07/11 12:09:59;;;;;;;1.40;1.10;;;32.90;94.80;;;;;;4872669;29;20571;-82
2022/07/11 12:12:45;;;;;;;2.95;0.90;;;33.00;94.70;;;;;;4872610;29;20563;-82
2022/07/11 12:15:28;;;;;;;1.85;1.33;;;33.10;93.00;;;;;;4873772;29;20057;-82
2022/07/11 12:18:03;;;;;;;2.22;1.30;;;33.10;91.90;;;;;;4869956;29;20056;-83
2022/07/11 12:20:36;;;;;;;3.97;1.50;;;33.10;89.70;;;;;;4871216;29;20144;-81
2022/07/11 12:23:11;;;;;;;3.03;1.42;;;33.10;89.20;;;;;;4872316;29;20088;-82
2022/07/11 12:25:49;;;;;;;1.17;1.08;;;33.10;91.50;;;;;;4874352;29;20167;-83
2022/07/11 12:28:17;;;;;;;2.58;0.85;;;33.10;91.20;;;;;;4857867;29;20132;-83
2022/07/11 12:30:45;;;;;;;2.33;1.27;;;33.10;90.50;;;;;;4872790;29;20052;-82
2022/07/11 12:33:15;;;;;;;2.97;1.00;;;33.10;92.20;;;;;;4872910;29;20112;-83
2022/07/11 12:35:55;;;;;;;3.50;1.00;;;33.00;91.40;;;;;;4871101;29;20560;-83
2022/07/11 12:38:25;;;;;;;1.45;1.20;;;33.00;91.70;;;;;;4869052;29;20058;-84
2022/07/11 12:41:01;;;;;;;2.58;0.95;;;33.00;90.60;;;;;;4872203;29;20602;-83
2022/07/11 12:46:28;;;;;;;4.43;1.17;;;33.00;88.90;;;;;;4873066;29;19934;-82
2022/07/11 12:48:56;;;;;;;1.58;0.98;;;33.00;91.20;;;;;;4872096;29;20049;-83
2022/07/11 12:51:28;;;;;;;2.20;1.00;;;33.00;90.80;;;;;;4867756;29;20045;-82
2022/07/11 12:54:03;;;;;;;2.05;1.40;;;33.10;90.70;;;;;;4872241;29;20507;-82
2022/07/11 12:56:32;;;;;;;2.80;1.27;;;33.20;88.50;;;;;;4872581;29;20156;-81
2022/07/11 12:59:03;;;;;;;1.95;1.20;;;33.20;90.00;;;;;;4869655;29;20045;-82
2022/07/11 13:01:54;;;;;;;1.48;1.02;;;33.40;88.20;;;;;;4874133;29;20059;-83
2022/07/11 13:04:34;;;;;;;1.93;1.10;;;33.40;88.90;;;;;;4867486;29;20077;-84
2022/07/11 13:10:10;;;;;;;3.97;1.45;;;33.30;88.60;;;;;;4871523;29;20116;-81
2022/07/11 13:12:39;;;;;;;2.08;0.98;;;33.50;90.70;;;;;;4873340;29;20729;-83
2022/07/11 13:15:09;;;;;;;4.55;1.00;;;33.40;90.70;;;;;;4856624;29;20049;-83
2022/07/11 13:17:38;;;;;;;5.22;0.80;;;33.50;90.20;;;;;;4869528;29;20053;-83